createdAt,value
2023-01-31T00:03:14.589Z,1.40
2023-01-31T00:08:16.519Z,1.39
2023-01-31T00:13:18.346Z,1.41
2023-01-31T00:18:20.139Z,1.37
2023-01-31T00:23:22.020Z,1.36
2023-01-31T00:28:23.801Z,1.16
2023-01-31T00:33:25.583Z,0.95
2023-01-31T00:38:27.459Z,0.97
2023-01-31T00:43:29.540Z,1.13
2023-01-31T00:48:31.778Z,1.12
2023-01-31T00:53:34.898Z,1.08
2023-01-31T00:58:37.601Z,1.05
2023-01-31T01:03:40.955Z,0.99
2023-01-31T01:08:43.764Z,1.03
2023-01-31T01:13:46.029Z,1.07
2023-01-31T01:18:49.371Z,1.13
2023-01-31T01:23:52.255Z,1.20
2023-01-31T01:28:55.694Z,1.26
2023-01-31T01:34:12.018Z,1.20
2023-01-31T01:39:13.904Z,1.20
2023-01-31T01:44:54.474Z,1.20
2023-01-31T01:50:03.024Z,1.24
2023-01-31T01:55:14.857Z,1.25
2023-01-31T02:00:22.716Z,1.24
2023-01-31T02:05:40.621Z,1.25
2023-01-31T02:10:49.016Z,1.32
2023-01-31T02:15:51.078Z,1.31
2023-01-31T02:21:35.976Z,1.29
2023-01-31T02:27:05.226Z,1.32
2023-01-31T02:32:25.457Z,1.27
2023-01-31T02:37:50.609Z,1.19
2023-01-31T02:43:34.247Z,1.12
2023-01-31T02:48:46.022Z,1.12
2023-01-31T02:54:00.156Z,1.08
2023-01-31T02:59:22.000Z,0.99
2023-01-31T03:04:30.099Z,0.96
2023-01-31T03:09:37.927Z,1.02
2023-01-31T03:15:20.170Z,1.04
2023-01-31T03:20:28.169Z,1.03
2023-01-31T03:25:34.828Z,1.12
2023-01-31T03:30:48.831Z,1.16
2023-01-31T03:35:58.248Z,1.22
2023-01-31T03:41:16.123Z,1.26
2023-01-31T03:46:28.120Z,1.33
2023-01-31T03:51:33.042Z,1.37
2023-01-31T03:57:00.145Z,1.37
2023-01-31T04:02:05.591Z,1.41
2023-01-31T04:07:07.556Z,1.46
2023-01-31T04:12:15.270Z,1.45
2023-01-31T04:17:17.180Z,1.44
2023-01-31T04:22:18.994Z,1.45
2023-01-31T04:27:20.759Z,1.44
2023-01-31T04:32:22.556Z,1.43
2023-01-31T04:37:24.374Z,1.45
2023-01-31T04:42:26.149Z,1.45
2023-01-31T04:47:27.956Z,1.41
2023-01-31T04:52:29.749Z,1.39
2023-01-31T04:57:31.749Z,1.33
2023-01-31T05:02:33.832Z,1.32
2023-01-31T05:07:35.826Z,1.31
2023-01-31T05:12:37.985Z,1.28
2023-01-31T05:17:39.818Z,1.19
2023-01-31T05:22:41.594Z,1.18
2023-01-31T05:27:44.970Z,1.19
2023-01-31T05:32:49.169Z,1.19
2023-01-31T05:37:53.750Z,1.18
2023-01-31T05:42:58.208Z,1.12
2023-01-31T05:48:00.214Z,1.05
2023-01-31T05:53:05.274Z,1.07
2023-01-31T05:58:07.206Z,1.12
2023-01-31T06:03:09.634Z,1.16
2023-01-31T06:08:11.455Z,1.09
2023-01-31T06:13:13.268Z,1.16
2023-01-31T06:18:15.113Z,1.17
2023-01-31T06:23:17.000Z,1.17
2023-01-31T06:28:19.445Z,1.25
2023-01-31T06:33:22.731Z,1.29
2023-01-31T06:38:27.320Z,1.23
2023-01-31T06:43:29.149Z,1.14
2023-01-31T06:48:31.654Z,1.14
2023-01-31T06:53:33.540Z,1.18
2023-01-31T06:58:35.643Z,1.28
2023-01-31T07:03:38.378Z,1.31
2023-01-31T07:08:40.269Z,1.36
2023-01-31T07:13:42.114Z,1.50
2023-01-31T07:18:43.941Z,1.63
2023-01-31T07:23:46.438Z,1.74
2023-01-31T07:28:48.237Z,1.86
2023-01-31T07:33:50.134Z,1.88
2023-01-31T07:38:55.749Z,1.90
2023-01-31T07:43:58.830Z,1.90
2023-01-31T07:49:01.096Z,1.94
2023-01-31T07:54:02.962Z,1.92
2023-01-31T07:59:04.783Z,1.91
2023-01-31T08:04:20.579Z,1.91
2023-01-31T08:09:24.858Z,1.86
2023-01-31T08:14:28.342Z,1.66
2023-01-31T08:19:30.593Z,1.63
2023-01-31T08:24:33.467Z,1.77
2023-01-31T08:29:35.326Z,1.78
2023-01-31T08:34:37.150Z,1.85
2023-01-31T08:39:39.061Z,2.12
2023-01-31T08:44:40.828Z,2.20
2023-01-31T08:49:42.640Z,2.28
2023-01-31T08:54:44.461Z,2.33
2023-01-31T08:59:46.407Z,2.41
2023-01-31T09:04:49.634Z,2.70
2023-01-31T09:09:51.512Z,2.74
2023-01-31T09:14:54.005Z,2.79
2023-01-31T09:19:56.412Z,2.71
2023-01-31T09:24:58.281Z,2.64
2023-01-31T09:30:00.247Z,2.53
2023-01-31T09:35:02.037Z,2.55
2023-01-31T09:40:06.278Z,2.58
2023-01-31T09:45:32.095Z,2.64
2023-01-31T09:50:46.578Z,2.74
2023-01-31T09:55:57.678Z,2.77
2023-01-31T10:01:18.504Z,2.71
2023-01-31T10:06:24.713Z,2.77
2023-01-31T10:11:51.882Z,2.92
2023-01-31T10:16:56.584Z,2.94
2023-01-31T10:22:04.268Z,2.96
2023-01-31T10:27:21.389Z,3.12
2023-01-31T10:32:33.719Z,3.22
2023-01-31T10:37:44.541Z,3.31
2023-01-31T10:42:52.802Z,3.42
2023-01-31T10:48:16.271Z,3.52
2023-01-31T10:53:55.477Z,3.76
2023-01-31T10:59:00.183Z,3.97
2023-01-31T11:04:26.440Z,3.71
2023-01-31T11:09:37.075Z,3.41
2023-01-31T11:14:39.334Z,3.30
2023-01-31T11:19:50.592Z,3.14
2023-01-31T11:24:53.878Z,3.25
2023-01-31T11:30:00.129Z,3.31
2023-01-31T11:35:06.886Z,3.31
2023-01-31T11:40:29.800Z,3.21
2023-01-31T11:45:36.823Z,3.31
2023-01-31T11:50:46.032Z,3.35
2023-01-31T11:55:50.191Z,3.16
2023-01-31T12:01:20.840Z,3.07
2023-01-31T12:06:27.376Z,2.98
2023-01-31T12:11:32.505Z,2.79
2023-01-31T12:16:37.431Z,2.71
2023-01-31T12:22:29.178Z,2.71
2023-01-31T12:27:46.149Z,2.61
2023-01-31T12:33:08.609Z,2.16
2023-01-31T12:38:36.999Z,1.76
2023-01-31T12:44:06.253Z,1.79
2023-01-31T12:49:33.896Z,1.54
2023-01-31T12:54:41.756Z,1.19
2023-01-31T12:59:56.480Z,1.01
2023-01-31T13:05:07.571Z,1.05
2023-01-31T13:10:39.807Z,1.27
2023-01-31T13:15:49.719Z,1.47
2023-01-31T13:20:59.479Z,1.55
2023-01-31T13:26:13.333Z,1.69
2023-01-31T13:31:22.174Z,1.71
2023-01-31T13:36:37.327Z,1.75
2023-01-31T13:41:40.078Z,1.76
2023-01-31T13:47:14.677Z,1.76
2023-01-31T13:52:23.091Z,1.72
2023-01-31T13:57:35.562Z,1.70
2023-01-31T14:02:37.443Z,1.73
2023-01-31T14:07:39.290Z,1.76
2023-01-31T14:12:41.093Z,1.79
2023-01-31T14:17:43.069Z,1.72
2023-01-31T14:23:27.802Z,1.75
2023-01-31T14:28:30.359Z,1.71
2023-01-31T14:33:32.307Z,1.72
2023-01-31T14:38:55.737Z,1.67
2023-01-31T14:44:16.883Z,1.60
2023-01-31T14:49:45.135Z,1.50
2023-01-31T14:55:05.811Z,1.39
2023-01-31T15:00:14.060Z,1.33
2023-01-31T15:05:39.456Z,1.31
2023-01-31T15:11:02.655Z,1.33
2023-01-31T15:16:22.776Z,1.34
2023-01-31T15:21:29.817Z,1.28
2023-01-31T15:26:35.561Z,1.25
2023-01-31T15:31:44.432Z,1.22
2023-01-31T15:36:59.817Z,1.17
2023-01-31T15:42:22.420Z,1.11
2023-01-31T15:47:24.262Z,1.09
2023-01-31T15:52:27.663Z,1.06
2023-01-31T15:57:41.585Z,1.02
2023-01-31T16:02:43.405Z,1.03
2023-01-31T16:07:47.684Z,1.09
2023-01-31T16:12:53.212Z,1.14
2023-01-31T16:17:58.468Z,1.19
2023-01-31T16:23:00.390Z,1.23
2023-01-31T16:28:11.316Z,1.28
2023-01-31T16:33:18.428Z,1.33
2023-01-31T16:38:29.475Z,1.38
2023-01-31T16:43:33.931Z,1.46
2023-01-31T16:48:38.663Z,1.56
2023-01-31T16:53:41.644Z,1.68
2023-01-31T16:59:03.671Z,1.75
2023-01-31T17:04:11.521Z,1.83
2023-01-31T17:09:19.065Z,1.89
2023-01-31T17:14:20.930Z,1.93
2023-01-31T17:19:23.472Z,1.99
2023-01-31T17:24:25.414Z,2.01
2023-01-31T17:29:27.454Z,2.02
2023-01-31T17:34:29.297Z,2.01
2023-01-31T17:39:31.094Z,2.02
2023-01-31T17:44:32.928Z,2.06
2023-01-31T17:49:35.114Z,2.08
2023-01-31T17:54:37.099Z,2.13
2023-01-31T17:59:38.885Z,2.13
2023-01-31T18:04:40.678Z,2.15
2023-01-31T18:09:42.545Z,2.00
2023-01-31T18:14:44.376Z,1.98
2023-01-31T18:19:46.393Z,1.98
2023-01-31T18:24:48.216Z,2.03
2023-01-31T18:29:50.025Z,2.09
2023-01-31T18:34:51.923Z,2.12
2023-01-31T18:39:53.959Z,2.05
2023-01-31T18:44:55.871Z,2.06
2023-01-31T18:49:57.689Z,2.08
2023-01-31T18:54:59.671Z,2.04
2023-01-31T19:00:01.503Z,2.00
2023-01-31T19:05:03.420Z,2.01
2023-01-31T19:10:05.594Z,2.17
2023-01-31T19:15:09.975Z,2.28
2023-01-31T19:20:12.338Z,2.36
2023-01-31T19:25:14.750Z,2.37
2023-01-31T19:30:16.672Z,2.42
2023-01-31T19:35:18.576Z,2.47
2023-01-31T19:40:20.406Z,2.48
2023-01-31T19:45:22.806Z,2.35
2023-01-31T19:50:24.833Z,2.27
2023-01-31T19:55:26.697Z,2.26
2023-01-31T20:00:28.550Z,2.26
2023-01-31T20:05:32.684Z,2.27
2023-01-31T20:10:35.870Z,2.30
2023-01-31T20:15:37.737Z,2.26
2023-01-31T20:20:39.584Z,2.31
2023-01-31T20:25:41.381Z,2.36
2023-01-31T20:30:43.571Z,2.39
2023-01-31T20:35:46.437Z,2.44
2023-01-31T20:40:52.831Z,2.48
2023-01-31T20:46:07.378Z,2.53
2023-01-31T20:51:09.332Z,2.62
2023-01-31T20:56:11.611Z,2.68
2023-01-31T21:01:13.524Z,2.69
2023-01-31T21:06:15.367Z,2.61
2023-01-31T21:11:17.237Z,2.52
2023-01-31T21:16:19.231Z,2.41
2023-01-31T21:21:24.397Z,2.40
2023-01-31T21:26:27.212Z,2.44
2023-01-31T21:31:29.769Z,2.50
2023-01-31T21:36:34.065Z,2.52
2023-01-31T21:41:54.420Z,2.64
2023-01-31T21:46:59.583Z,2.72
2023-01-31T21:52:02.051Z,2.88
2023-01-31T21:57:04.145Z,3.02
2023-01-31T22:02:06.406Z,3.00
2023-01-31T22:07:08.738Z,3.08
2023-01-31T22:12:10.551Z,3.09
2023-01-31T22:17:12.387Z,2.94
2023-01-31T22:22:14.163Z,2.88
2023-01-31T22:27:16.020Z,2.88
2023-01-31T22:32:17.850Z,3.07
2023-01-31T22:37:19.614Z,3.04
2023-01-31T22:42:21.380Z,3.05
2023-01-31T22:47:24.229Z,3.06
2023-01-31T22:52:26.056Z,3.10
2023-01-31T22:57:27.918Z,3.19
2023-01-31T23:02:29.709Z,3.23
2023-01-31T23:07:31.633Z,3.24
2023-01-31T23:12:33.457Z,3.28
2023-01-31T23:17:39.506Z,3.27
2023-01-31T23:22:42.310Z,3.27
2023-01-31T23:27:44.135Z,3.32
2023-01-31T23:32:46.008Z,3.29
2023-01-31T23:37:47.778Z,3.27
2023-01-31T23:42:49.671Z,3.29
2023-01-31T23:47:51.489Z,3.21
2023-01-31T23:52:53.444Z,3.19
2023-01-31T23:57:55.407Z,3.22
